createdAt,value
2023-05-19T00:00:34.409Z,57.92
2023-05-19T00:02:57.095Z,57.93
2023-05-19T00:05:00.953Z,57.97
2023-05-19T00:07:05.565Z,57.86
2023-05-19T00:09:10.105Z,58.09
2023-05-19T00:11:13.231Z,57.98
2023-05-19T00:13:18.104Z,57.96
2023-05-19T00:15:23.106Z,58.02
2023-05-19T00:17:28.065Z,57.82
2023-05-19T00:19:32.513Z,58.15
2023-05-19T00:21:35.317Z,58.00
2023-05-19T00:23:38.006Z,58.17
2023-05-19T00:25:40.747Z,58.26
2023-05-19T00:27:43.766Z,58.40
2023-05-19T00:29:46.377Z,58.35
2023-05-19T00:31:49.033Z,58.34
2023-05-19T00:33:53.320Z,58.68
2023-05-19T00:36:05.747Z,58.94
2023-05-19T00:38:08.746Z,59.03
2023-05-19T00:40:15.296Z,59.37
2023-05-19T00:42:18.776Z,59.15
2023-05-19T00:44:21.636Z,59.18
2023-05-19T00:46:25.165Z,59.51
2023-05-19T00:48:28.050Z,59.61
2023-05-19T00:50:33.260Z,59.61
2023-05-19T00:52:36.419Z,59.62
2023-05-19T00:54:40.237Z,59.63
2023-05-19T00:56:46.080Z,59.58
2023-05-19T00:58:55.210Z,59.70
2023-05-19T01:01:04.243Z,60.34
2023-05-19T01:03:22.525Z,60.56
2023-05-19T01:05:25.180Z,60.48
2023-05-19T01:07:29.422Z,60.10
2023-05-19T01:09:32.273Z,60.13
2023-05-19T01:11:34.894Z,59.76
2023-05-19T01:13:42.851Z,59.61
2023-05-19T01:16:03.920Z,59.66
2023-05-19T01:18:14.438Z,59.47
2023-05-19T01:20:32.199Z,59.22
2023-05-19T01:23:06.911Z,58.95
2023-05-19T01:25:44.169Z,58.65
2023-05-19T01:28:16.972Z,58.88
2023-05-19T01:30:30.224Z,58.68
2023-05-19T01:32:36.206Z,58.47
2023-05-19T01:34:43.520Z,58.23
2023-05-19T01:36:48.646Z,58.35
2023-05-19T01:38:53.190Z,58.36
2023-05-19T01:40:57.185Z,58.26
2023-05-19T01:43:19.697Z,58.49
2023-05-19T01:45:26.162Z,58.50
2023-05-19T01:47:28.960Z,58.49
2023-05-19T01:49:31.687Z,58.57
2023-05-19T01:51:37.000Z,58.52
2023-05-19T01:53:40.055Z,58.52
2023-05-19T01:55:46.191Z,58.64
2023-05-19T01:58:08.539Z,58.35
2023-05-19T02:00:21.228Z,58.25
2023-05-19T02:02:34.878Z,58.58
2023-05-19T02:04:46.805Z,58.54
2023-05-19T02:06:57.849Z,58.81
2023-05-19T02:09:04.918Z,58.92
2023-05-19T02:11:15.694Z,58.91
2023-05-19T02:13:21.637Z,59.02
2023-05-19T02:15:27.584Z,58.86
2023-05-19T02:17:36.173Z,59.02
2023-05-19T02:19:40.616Z,58.92
2023-05-19T02:21:43.218Z,58.78
2023-05-19T02:23:46.434Z,58.77
2023-05-19T02:25:50.312Z,58.46
2023-05-19T02:28:08.005Z,58.17
2023-05-19T02:30:11.556Z,58.25
2023-05-19T02:32:26.655Z,58.06
2023-05-19T02:34:36.977Z,57.91
2023-05-19T02:36:43.016Z,58.03
2023-05-19T02:38:51.052Z,57.74
2023-05-19T02:40:58.977Z,57.63
2023-05-19T02:43:02.269Z,57.60
2023-05-19T02:45:10.655Z,57.95
2023-05-19T02:47:13.520Z,58.04
2023-05-19T02:49:16.252Z,58.02
2023-05-19T02:51:21.102Z,57.91
2023-05-19T02:53:25.507Z,58.06
2023-05-19T02:55:28.115Z,57.96
2023-05-19T02:57:31.656Z,58.10
2023-05-19T02:59:34.363Z,58.05
2023-05-19T03:01:51.256Z,58.11
2023-05-19T03:03:54.182Z,57.88
2023-05-19T03:06:00.302Z,57.69
2023-05-19T03:08:06.251Z,57.79
2023-05-19T03:10:10.409Z,57.88
2023-05-19T03:12:16.400Z,57.70
2023-05-19T03:14:24.185Z,57.71
2023-05-19T03:16:28.156Z,57.68
2023-05-19T03:18:31.038Z,57.74
2023-05-19T03:22:50.585Z,57.74
2023-05-19T03:24:54.918Z,57.68
2023-05-19T03:26:57.557Z,57.90
2023-05-19T03:29:00.279Z,58.10
2023-05-19T03:31:03.236Z,58.48
2023-05-19T03:33:05.948Z,58.72
2023-05-19T03:35:09.674Z,58.78
2023-05-19T03:37:12.970Z,58.92
2023-05-19T03:39:15.937Z,59.12
2023-05-19T03:41:22.734Z,59.24
2023-05-19T03:43:25.437Z,59.45
2023-05-19T03:45:31.321Z,59.79
2023-05-19T03:47:48.180Z,59.99
2023-05-19T03:49:50.880Z,59.99
2023-05-19T03:51:53.555Z,60.16
2023-05-19T03:53:56.307Z,60.45
2023-05-19T03:56:01.491Z,60.39
2023-05-19T03:58:06.363Z,60.55
2023-05-19T04:00:11.217Z,60.54
2023-05-19T04:02:13.997Z,60.67
2023-05-19T04:04:18.197Z,60.60
2023-05-19T04:06:21.115Z,60.76
2023-05-19T04:08:24.240Z,60.98
2023-05-19T04:10:27.359Z,60.89
2023-05-19T04:12:33.135Z,60.95
2023-05-19T04:14:51.721Z,61.09
2023-05-19T04:16:54.836Z,61.12
2023-05-19T04:18:57.429Z,60.87
2023-05-19T04:21:20.953Z,60.99
2023-05-19T04:23:32.524Z,61.13
2023-05-19T04:25:36.387Z,61.28
2023-05-19T04:27:42.443Z,61.03
2023-05-19T04:29:48.371Z,61.42
2023-05-19T04:31:52.169Z,61.52
2023-05-19T04:33:54.872Z,61.60
2023-05-19T04:35:58.378Z,61.42
2023-05-19T04:38:01.841Z,61.27
2023-05-19T04:40:12.495Z,61.14
2023-05-19T04:42:44.274Z,61.16
2023-05-19T04:44:51.637Z,61.13
2023-05-19T04:46:54.567Z,61.24
2023-05-19T04:48:58.346Z,61.25
2023-05-19T04:51:07.755Z,61.56
2023-05-19T04:53:11.424Z,61.59
2023-05-19T04:55:14.149Z,61.66
2023-05-19T04:57:19.172Z,61.91
2023-05-19T04:59:35.863Z,61.94
2023-05-19T05:01:41.000Z,61.70
2023-05-19T05:03:44.290Z,61.50
2023-05-19T05:05:47.037Z,61.77
2023-05-19T05:08:19.382Z,61.83
2023-05-19T05:10:22.067Z,61.82
2023-05-19T05:12:32.052Z,61.84
2023-05-19T05:14:36.192Z,61.79
2023-05-19T05:17:18.048Z,61.87
2023-05-19T05:19:22.275Z,62.15
2023-05-19T05:21:39.977Z,62.09
2023-05-19T05:23:48.226Z,62.07
2023-05-19T05:25:53.536Z,62.21
2023-05-19T05:28:04.928Z,61.90
2023-05-19T05:30:40.627Z,61.79
2023-05-19T05:32:56.237Z,62.01
2023-05-19T05:34:58.915Z,62.11
2023-05-19T05:37:04.304Z,61.87
2023-05-19T05:39:07.498Z,61.66
2023-05-19T05:41:14.113Z,61.66
2023-05-19T05:43:16.683Z,61.68
2023-05-19T05:45:19.764Z,61.67
2023-05-19T05:47:23.165Z,61.54
2023-05-19T05:51:57.993Z,61.46
2023-05-19T05:54:11.818Z,61.57
2023-05-19T05:56:15.746Z,61.60
2023-05-19T05:58:19.308Z,61.55
2023-05-19T06:00:22.636Z,61.19
2023-05-19T06:02:30.913Z,60.93
2023-05-19T06:04:35.957Z,61.04
2023-05-19T06:06:40.249Z,61.10
2023-05-19T06:08:42.896Z,61.27
2023-05-19T06:10:47.362Z,61.38
2023-05-19T06:12:51.174Z,61.26
2023-05-19T06:14:54.139Z,61.78
2023-05-19T06:17:18.156Z,61.74
2023-05-19T06:21:40.355Z,61.91
2023-05-19T06:23:43.201Z,62.08
2023-05-19T06:25:51.402Z,61.92
2023-05-19T06:27:54.291Z,62.02
2023-05-19T06:29:57.201Z,61.90
2023-05-19T06:32:22.960Z,61.93
2023-05-19T06:34:30.162Z,61.57
2023-05-19T06:36:35.185Z,61.70
2023-05-19T06:38:39.138Z,61.66
2023-05-19T06:40:41.843Z,61.57
2023-05-19T06:42:44.411Z,61.81
2023-05-19T06:44:46.993Z,62.20
2023-05-19T06:46:49.631Z,62.13
2023-05-19T06:48:52.384Z,61.86
2023-05-19T06:50:55.089Z,61.85
2023-05-19T06:52:58.349Z,61.88
2023-05-19T06:55:02.446Z,61.79
2023-05-19T06:57:05.269Z,60.95
2023-05-19T06:59:07.857Z,60.89
2023-05-19T07:01:10.557Z,59.88
2023-05-19T07:03:13.308Z,60.01
2023-05-19T07:05:16.108Z,59.72
2023-05-19T07:07:19.055Z,59.97
2023-05-19T07:09:21.917Z,60.02
2023-05-19T07:11:26.295Z,60.27
2023-05-19T07:13:28.868Z,60.38
2023-05-19T07:15:31.476Z,60.03
2023-05-19T07:17:34.059Z,60.30
2023-05-19T07:19:36.651Z,60.27
2023-05-19T07:21:39.265Z,60.24
2023-05-19T07:23:41.853Z,60.34
2023-05-19T07:25:44.484Z,59.31
2023-05-19T07:27:48.410Z,59.66
2023-05-19T07:29:50.982Z,60.27
2023-05-19T07:31:57.628Z,59.80
2023-05-19T07:34:00.679Z,59.87
2023-05-19T07:36:03.406Z,60.09
2023-05-19T07:38:07.363Z,59.84
2023-05-19T07:40:10.410Z,60.06
2023-05-19T07:42:13.024Z,59.83
2023-05-19T07:44:16.994Z,60.05
2023-05-19T07:46:19.716Z,60.12
2023-05-19T07:48:23.098Z,60.15
2023-05-19T07:50:25.828Z,58.63
2023-05-19T07:52:28.446Z,59.42
2023-05-19T07:54:31.103Z,59.96
2023-05-19T07:56:33.713Z,59.83
2023-05-19T07:58:36.335Z,59.84
2023-05-19T08:00:41.102Z,59.99
2023-05-19T08:02:43.843Z,59.78
2023-05-19T08:04:46.709Z,59.82
2023-05-19T08:06:49.404Z,60.27
2023-05-19T08:08:52.023Z,60.54
2023-05-19T08:10:54.660Z,60.42
2023-05-19T08:12:57.344Z,60.24
2023-05-19T08:15:01.341Z,59.88
2023-05-19T08:17:06.238Z,59.72
2023-05-19T08:19:08.975Z,59.67
2023-05-19T08:21:11.771Z,59.55
2023-05-19T08:23:14.408Z,59.56
2023-05-19T08:25:17.053Z,59.72
2023-05-19T08:27:19.621Z,60.30
2023-05-19T08:29:22.418Z,59.99
2023-05-19T08:31:25.131Z,59.72
2023-05-19T08:33:29.180Z,59.64
2023-05-19T08:35:31.857Z,59.78
2023-05-19T08:37:37.079Z,59.43
2023-05-19T08:39:39.814Z,59.31
2023-05-19T08:41:42.589Z,59.19
2023-05-19T08:43:45.414Z,59.33
2023-05-19T08:45:48.312Z,59.33
2023-05-19T08:47:52.341Z,59.29
2023-05-19T08:50:02.288Z,59.53
2023-05-19T08:52:13.704Z,59.41
2023-05-19T08:54:18.053Z,59.54
2023-05-19T08:56:22.702Z,59.63
2023-05-19T08:58:26.873Z,59.46
2023-05-19T09:00:32.490Z,59.83
2023-05-19T09:02:35.713Z,59.65
2023-05-19T09:04:39.557Z,59.57
2023-05-19T09:06:45.068Z,59.23
2023-05-19T09:08:48.200Z,58.37
2023-05-19T09:10:51.004Z,58.77
2023-05-19T09:12:54.519Z,59.30
2023-05-19T09:14:57.857Z,59.41
2023-05-19T09:17:00.775Z,59.25
2023-05-19T09:19:03.488Z,59.44
2023-05-19T09:21:07.534Z,59.67
2023-05-19T09:23:16.181Z,59.69
2023-05-19T09:25:20.026Z,59.28
2023-05-19T09:27:23.726Z,59.43
2023-05-19T09:29:26.627Z,59.30
2023-05-19T09:31:34.053Z,59.65
2023-05-19T09:33:38.240Z,59.74
2023-05-19T09:35:40.912Z,59.46
2023-05-19T09:37:43.996Z,59.02
2023-05-19T09:39:52.056Z,59.39
2023-05-19T09:41:55.276Z,58.83
2023-05-19T09:43:57.891Z,58.60
2023-05-19T09:46:01.784Z,58.84
2023-05-19T09:48:05.697Z,58.82
2023-05-19T09:50:11.905Z,58.90
2023-05-19T09:52:17.068Z,58.97
2023-05-19T09:54:21.445Z,59.09
2023-05-19T09:56:25.554Z,58.84
2023-05-19T09:58:31.946Z,58.81
2023-05-19T10:00:35.460Z,58.50
2023-05-19T10:02:39.474Z,58.98
2023-05-19T10:04:43.160Z,59.24
2023-05-19T10:06:46.495Z,59.46
2023-05-19T10:08:51.242Z,59.18
2023-05-19T10:10:53.931Z,59.23
2023-05-19T10:12:59.924Z,59.18
2023-05-19T10:15:02.838Z,59.30
2023-05-19T10:17:06.243Z,59.28
2023-05-19T10:19:10.008Z,59.20
2023-05-19T10:21:14.021Z,59.25
2023-05-19T10:23:16.749Z,59.08
2023-05-19T10:25:20.092Z,59.08
2023-05-19T10:27:24.630Z,58.91
2023-05-19T10:29:31.609Z,58.98
2023-05-19T10:31:36.744Z,59.34
2023-05-19T10:33:50.326Z,59.67
2023-05-19T10:36:14.407Z,59.00
2023-05-19T10:38:25.570Z,59.23
2023-05-19T10:40:36.072Z,59.32
2023-05-19T10:42:45.644Z,59.60
2023-05-19T10:44:59.489Z,60.16
2023-05-19T10:47:02.325Z,59.43
2023-05-19T10:49:05.157Z,59.22
2023-05-19T10:51:12.223Z,59.05
2023-05-19T10:53:19.413Z,59.01
2023-05-19T10:55:47.532Z,58.77
2023-05-19T10:57:57.649Z,58.51
2023-05-19T11:00:11.424Z,58.59
2023-05-19T11:02:38.713Z,58.52
2023-05-19T11:04:51.067Z,58.62
2023-05-19T11:06:54.160Z,58.72
2023-05-19T11:09:00.608Z,58.89
2023-05-19T11:11:14.446Z,58.76
2023-05-19T11:13:23.056Z,58.93
2023-05-19T11:15:28.636Z,59.20
2023-05-19T11:17:35.050Z,58.43
2023-05-19T11:19:37.772Z,58.38
2023-05-19T11:21:49.070Z,57.64
2023-05-19T11:23:52.802Z,57.96
2023-05-19T11:25:55.493Z,58.26
2023-05-19T11:27:58.776Z,58.61
2023-05-19T11:30:05.343Z,58.64
2023-05-19T11:32:11.198Z,57.77
2023-05-19T11:34:14.188Z,57.63
2023-05-19T11:36:17.919Z,58.14
2023-05-19T11:38:21.117Z,58.04
2023-05-19T11:40:24.428Z,58.18
2023-05-19T11:42:27.018Z,58.05
2023-05-19T11:44:29.619Z,58.10
2023-05-19T11:46:32.684Z,58.08
2023-05-19T11:48:37.054Z,58.08
2023-05-19T11:50:42.212Z,58.49
2023-05-19T11:52:45.641Z,58.52
2023-05-19T11:54:49.824Z,58.10
2023-05-19T11:56:55.451Z,57.26
2023-05-19T11:58:58.062Z,57.58
2023-05-19T12:01:04.811Z,57.91
2023-05-19T12:03:08.555Z,58.17
2023-05-19T12:05:21.222Z,58.27
2023-05-19T12:07:24.714Z,57.91
2023-05-19T12:09:29.557Z,57.77
2023-05-19T12:11:32.733Z,57.61
2023-05-19T12:13:36.322Z,57.71
2023-05-19T12:15:39.795Z,57.66
2023-05-19T12:17:42.522Z,58.07
2023-05-19T12:19:46.597Z,57.66
2023-05-19T12:21:52.214Z,57.51
2023-05-19T12:23:55.132Z,57.65
2023-05-19T12:25:58.401Z,57.70
2023-05-19T12:28:02.835Z,57.86
2023-05-19T12:30:06.497Z,57.87
2023-05-19T12:32:10.205Z,57.32
2023-05-19T12:34:13.554Z,57.60
2023-05-19T12:36:17.038Z,57.43
2023-05-19T12:38:22.515Z,57.47
2023-05-19T12:40:26.118Z,56.94
2023-05-19T12:42:31.326Z,56.77
2023-05-19T12:44:38.244Z,57.20
2023-05-19T12:46:41.495Z,57.16
2023-05-19T12:48:44.324Z,57.50
2023-05-19T12:50:46.946Z,57.55
2023-05-19T12:52:52.019Z,57.76
2023-05-19T12:55:01.380Z,57.93
2023-05-19T12:57:06.932Z,57.53
2023-05-19T12:59:09.851Z,57.33
2023-05-19T13:01:17.903Z,57.85
2023-05-19T13:03:22.094Z,57.63
2023-05-19T13:05:24.968Z,57.46
2023-05-19T13:07:27.724Z,57.14
2023-05-19T13:09:34.983Z,56.97
2023-05-19T13:11:40.416Z,57.11
2023-05-19T13:13:43.060Z,56.93
2023-05-19T13:15:48.727Z,57.48
2023-05-19T13:17:52.399Z,57.79
2023-05-19T13:19:55.091Z,57.54
2023-05-19T13:21:58.693Z,57.53
2023-05-19T13:24:01.239Z,57.43
2023-05-19T13:26:05.044Z,57.59
2023-05-19T13:28:09.561Z,57.12
2023-05-19T13:30:12.945Z,56.59
2023-05-19T13:32:15.571Z,56.75
2023-05-19T13:34:19.672Z,56.70
2023-05-19T13:36:22.286Z,57.08
2023-05-19T13:38:24.850Z,57.02
2023-05-19T13:40:28.169Z,57.10
2023-05-19T13:42:30.916Z,57.41
2023-05-19T13:44:34.983Z,57.48
2023-05-19T13:48:46.661Z,57.56
2023-05-19T13:50:49.641Z,57.00
2023-05-19T13:52:52.329Z,56.79
2023-05-19T13:54:56.569Z,57.13
2023-05-19T13:56:59.291Z,57.14
2023-05-19T13:59:01.907Z,57.03
2023-05-19T14:01:05.918Z,56.70
2023-05-19T14:03:08.665Z,56.61
2023-05-19T14:05:11.324Z,56.50
2023-05-19T14:07:13.964Z,56.41
2023-05-19T14:09:16.970Z,56.57
2023-05-19T14:11:21.570Z,56.58
2023-05-19T14:15:29.950Z,57.49
2023-05-19T14:17:34.003Z,57.48
2023-05-19T14:19:36.804Z,57.20
2023-05-19T14:21:39.410Z,56.91
2023-05-19T14:23:42.052Z,56.88
2023-05-19T14:25:46.716Z,56.60
2023-05-19T14:27:49.319Z,56.73
2023-05-19T14:29:51.899Z,56.51
2023-05-19T14:31:54.902Z,56.62
2023-05-19T14:33:59.033Z,56.54
2023-05-19T14:36:01.704Z,56.55
2023-05-19T14:38:04.334Z,56.72
2023-05-19T14:40:08.109Z,56.90
2023-05-19T14:42:10.697Z,57.13
2023-05-19T14:44:13.317Z,57.42
2023-05-19T14:46:16.033Z,57.59
2023-05-19T14:48:19.270Z,57.17
2023-05-19T14:50:23.325Z,56.78
2023-05-19T14:52:26.246Z,56.75
2023-05-19T14:54:28.869Z,57.02
2023-05-19T14:56:31.465Z,57.29
2023-05-19T14:58:34.045Z,57.13
2023-05-19T15:00:36.716Z,57.50
2023-05-19T15:02:39.572Z,57.04
2023-05-19T15:04:42.202Z,57.01
2023-05-19T15:06:48.172Z,57.42
2023-05-19T15:08:55.027Z,57.54
2023-05-19T15:10:57.587Z,57.49
2023-05-19T15:13:01.764Z,57.57
2023-05-19T15:15:05.096Z,57.13
2023-05-19T15:17:07.706Z,57.12
2023-05-19T15:19:10.430Z,57.29
2023-05-19T15:21:13.187Z,57.42
2023-05-19T15:23:17.170Z,57.62
2023-05-19T15:25:19.800Z,57.57
2023-05-19T15:27:22.460Z,57.75
2023-05-19T15:29:25.380Z,57.45
2023-05-19T15:31:28.220Z,57.39
2023-05-19T15:33:30.907Z,57.60
2023-05-19T15:35:33.503Z,57.55
2023-05-19T15:37:36.106Z,57.75
2023-05-19T15:39:40.312Z,57.81
2023-05-19T15:41:42.963Z,57.98
2023-05-19T15:43:47.193Z,57.64
2023-05-19T15:45:52.101Z,57.81
2023-05-19T15:47:55.984Z,57.81
2023-05-19T15:49:58.773Z,57.76
2023-05-19T15:52:01.413Z,57.79
2023-05-19T15:54:04.064Z,57.78
2023-05-19T15:56:08.146Z,57.76
2023-05-19T15:58:10.790Z,57.66
2023-05-19T16:00:14.407Z,57.84
2023-05-19T16:02:17.079Z,57.81
2023-05-19T16:04:19.773Z,57.31
2023-05-19T16:06:22.444Z,57.03
2023-05-19T16:08:25.806Z,56.90
2023-05-19T16:10:28.408Z,56.90
2023-05-19T16:12:32.354Z,57.71
2023-05-19T16:14:36.763Z,57.58
2023-05-19T16:16:39.562Z,57.08
2023-05-19T16:18:44.137Z,57.17
2023-05-19T16:20:47.026Z,57.39
2023-05-19T16:22:49.616Z,57.26
2023-05-19T16:24:52.429Z,57.33
2023-05-19T16:26:55.045Z,57.63
2023-05-19T16:28:59.001Z,57.69
2023-05-19T16:31:01.927Z,57.53
2023-05-19T16:33:04.934Z,57.31
2023-05-19T16:35:08.704Z,57.36
2023-05-19T16:37:11.288Z,57.69
2023-05-19T16:39:13.959Z,56.63
2023-05-19T16:41:16.580Z,56.70
2023-05-19T16:43:19.245Z,56.86
2023-05-19T16:45:23.173Z,57.06
2023-05-19T16:47:25.778Z,57.61
2023-05-19T16:49:28.335Z,57.57
2023-05-19T16:51:30.977Z,57.57
2023-05-19T16:53:33.580Z,57.57
2023-05-19T16:55:36.169Z,57.77
2023-05-19T16:57:38.787Z,57.90
2023-05-19T16:59:41.386Z,58.17
2023-05-19T17:01:45.422Z,57.73
2023-05-19T17:03:48.116Z,57.34
2023-05-19T17:05:50.760Z,57.40
2023-05-19T17:07:53.351Z,57.55
2023-05-19T17:09:56.274Z,57.50
2023-05-19T17:11:58.997Z,57.83
2023-05-19T17:14:02.034Z,57.58
2023-05-19T17:16:04.741Z,57.20
2023-05-19T17:18:08.747Z,57.38
2023-05-19T17:20:13.269Z,57.75
2023-05-19T17:22:15.925Z,57.83
2023-05-19T17:24:18.692Z,58.05
2023-05-19T17:26:21.506Z,58.13
2023-05-19T17:28:24.290Z,58.25
2023-05-19T17:30:27.000Z,58.10
2023-05-19T17:32:35.628Z,58.21
2023-05-19T17:34:40.016Z,58.16
2023-05-19T17:36:42.598Z,58.24
2023-05-19T17:38:45.182Z,58.40
2023-05-19T17:40:47.768Z,58.38
2023-05-19T17:42:50.351Z,58.54
2023-05-19T17:44:52.993Z,58.60
2023-05-19T17:46:55.742Z,58.61
2023-05-19T17:48:58.961Z,58.50
2023-05-19T17:51:05.137Z,58.17
2023-05-19T17:53:08.815Z,58.19
2023-05-19T17:55:12.814Z,58.28
2023-05-19T17:57:17.119Z,58.44
2023-05-19T17:59:20.147Z,58.20
2023-05-19T18:01:25.722Z,58.25
2023-05-19T18:03:29.122Z,58.39
2023-05-19T18:05:33.001Z,58.38
2023-05-19T18:07:39.263Z,58.54
2023-05-19T18:09:46.019Z,58.78
2023-05-19T18:11:48.653Z,58.74
2023-05-19T18:13:51.274Z,58.66
2023-05-19T18:15:56.297Z,58.75
2023-05-19T18:17:59.017Z,58.84
2023-05-19T18:20:01.765Z,59.30
2023-05-19T18:22:04.623Z,59.91
2023-05-19T18:24:08.757Z,60.21
2023-05-19T18:26:12.897Z,60.23
2023-05-19T18:28:15.978Z,60.23
2023-05-19T18:30:18.561Z,60.43
2023-05-19T18:32:21.179Z,60.48
2023-05-19T18:34:23.761Z,60.66
2023-05-19T18:36:26.335Z,62.23
2023-05-19T18:38:28.985Z,62.92
2023-05-19T18:40:33.361Z,62.95
2023-05-19T18:42:36.157Z,63.12
2023-05-19T18:44:38.739Z,63.62
2023-05-19T18:46:41.346Z,63.81
2023-05-19T18:48:44.965Z,63.96
2023-05-19T18:50:47.620Z,63.83
2023-05-19T18:52:50.950Z,64.30
2023-05-19T18:54:54.318Z,64.95
2023-05-19T18:56:58.240Z,66.03
2023-05-19T18:59:00.904Z,66.17
2023-05-19T19:01:03.574Z,66.39
2023-05-19T19:03:10.245Z,66.18
2023-05-19T19:05:13.869Z,65.94
2023-05-19T19:07:16.482Z,65.93
2023-05-19T19:09:19.209Z,66.05
2023-05-19T19:11:22.489Z,65.85
2023-05-19T19:13:26.509Z,67.69
2023-05-19T19:15:29.115Z,67.62
2023-05-19T19:17:31.718Z,67.77
2023-05-19T19:19:34.399Z,67.11
2023-05-19T19:21:37.053Z,67.48
2023-05-19T19:23:39.694Z,67.61
2023-05-19T19:25:42.266Z,67.69
2023-05-19T19:27:45.933Z,67.80
2023-05-19T19:29:49.889Z,67.55
2023-05-19T19:31:52.609Z,67.57
2023-05-19T19:33:58.780Z,67.95
2023-05-19T19:36:01.781Z,67.81
2023-05-19T19:38:04.400Z,67.26
2023-05-19T19:40:08.166Z,67.42
2023-05-19T19:42:10.918Z,67.07
2023-05-19T19:44:13.624Z,66.73
2023-05-19T19:46:17.692Z,66.72
2023-05-19T19:48:20.343Z,66.41
2023-05-19T19:50:23.596Z,66.85
2023-05-19T19:52:26.589Z,66.74
2023-05-19T19:54:29.854Z,66.76
2023-05-19T19:56:32.455Z,67.08
2023-05-19T19:58:35.170Z,66.88
2023-05-19T20:00:37.763Z,66.64
2023-05-19T20:02:55.814Z,66.95
2023-05-19T20:05:04.804Z,67.22
2023-05-19T20:07:07.422Z,67.11
2023-05-19T20:09:10.884Z,67.25
2023-05-19T20:11:13.473Z,67.03
2023-05-19T20:13:16.757Z,66.99
2023-05-19T20:15:19.607Z,67.03
2023-05-19T20:17:22.342Z,67.48
2023-05-19T20:19:28.927Z,67.49
2023-05-19T20:21:31.613Z,67.78
2023-05-19T20:23:34.205Z,67.77
2023-05-19T20:25:50.164Z,67.54
2023-05-19T20:28:02.891Z,67.59
2023-05-19T20:30:06.437Z,67.48
2023-05-19T20:32:09.634Z,67.97
2023-05-19T20:34:12.344Z,68.06
2023-05-19T20:36:16.532Z,68.49
2023-05-19T20:38:19.163Z,68.29
2023-05-19T20:40:21.742Z,68.37
2023-05-19T20:42:24.450Z,68.01
2023-05-19T20:44:27.019Z,67.79
2023-05-19T20:46:29.773Z,67.79
2023-05-19T20:48:32.461Z,67.52
2023-05-19T20:50:35.146Z,67.40
2023-05-19T20:52:39.124Z,67.21
2023-05-19T20:54:41.671Z,67.29
2023-05-19T20:56:44.269Z,67.50
2023-05-19T20:58:46.929Z,67.76
2023-05-19T21:00:54.149Z,67.94
2023-05-19T21:02:56.915Z,68.49
2023-05-19T21:04:59.716Z,68.59
2023-05-19T21:07:02.375Z,68.54
2023-05-19T21:09:06.853Z,68.66
2023-05-19T21:11:09.609Z,68.32
2023-05-19T21:13:12.224Z,68.42
2023-05-19T21:15:15.080Z,68.59
2023-05-19T21:17:18.792Z,68.57
2023-05-19T21:19:21.924Z,68.50
2023-05-19T21:21:24.610Z,68.60
2023-05-19T21:23:27.210Z,68.76
2023-05-19T21:25:31.485Z,68.85
2023-05-19T21:27:35.472Z,68.90
2023-05-19T21:29:38.082Z,68.95
2023-05-19T21:31:40.855Z,69.08
2023-05-19T21:33:43.559Z,69.05
2023-05-19T21:35:46.496Z,68.91
2023-05-19T21:37:49.140Z,68.80
2023-05-19T21:39:51.756Z,68.90
2023-05-19T21:41:55.691Z,68.78
2023-05-19T21:43:58.271Z,68.98
2023-05-19T21:46:00.946Z,69.07
2023-05-19T21:48:03.601Z,69.22
2023-05-19T21:50:07.508Z,69.12
2023-05-19T21:52:10.535Z,69.41
2023-05-19T21:54:13.267Z,69.22
2023-05-19T21:56:16.321Z,69.19
2023-05-19T21:58:20.384Z,69.12
2023-05-19T22:00:23.059Z,69.26
2023-05-19T22:02:25.692Z,69.29
2023-05-19T22:04:31.409Z,69.58
2023-05-19T22:06:34.404Z,69.66
2023-05-19T22:08:37.142Z,69.56
2023-05-19T22:10:39.819Z,69.80
2023-05-19T22:12:42.424Z,70.05
2023-05-19T22:14:46.600Z,69.72
2023-05-19T22:16:49.263Z,69.78
2023-05-19T22:18:52.045Z,69.77
2023-05-19T22:20:54.753Z,69.94
2023-05-19T22:22:59.457Z,69.85
2023-05-19T22:25:03.145Z,70.03
2023-05-19T22:27:08.023Z,69.98
2023-05-19T22:29:14.969Z,69.54
2023-05-19T22:31:18.950Z,69.52
2023-05-19T22:33:21.544Z,69.69
2023-05-19T22:35:24.305Z,69.68
2023-05-19T22:37:28.819Z,69.57
2023-05-19T22:39:31.413Z,69.16
2023-05-19T22:41:34.564Z,68.96
2023-05-19T22:43:37.161Z,68.87
2023-05-19T22:45:39.973Z,68.91
2023-05-19T22:47:43.967Z,69.08
2023-05-19T22:49:46.590Z,68.99
2023-05-19T22:51:49.282Z,69.08
2023-05-19T22:53:52.025Z,69.39
2023-05-19T22:55:54.597Z,69.40
2023-05-19T22:57:57.168Z,69.32
2023-05-19T22:59:59.791Z,69.69
2023-05-19T23:02:02.811Z,69.94
2023-05-19T23:04:06.820Z,69.97
2023-05-19T23:06:09.410Z,70.27
2023-05-19T23:08:12.035Z,70.11
2023-05-19T23:10:14.634Z,69.99
2023-05-19T23:12:17.565Z,69.85
2023-05-19T23:14:21.760Z,69.88
2023-05-19T23:16:24.394Z,70.05
2023-05-19T23:18:27.007Z,70.19
2023-05-19T23:20:31.084Z,69.94
2023-05-19T23:22:33.678Z,70.05
2023-05-19T23:24:36.255Z,70.02
2023-05-19T23:26:38.873Z,70.20
2023-05-19T23:28:42.722Z,70.23
2023-05-19T23:30:45.316Z,70.37
2023-05-19T23:32:48.029Z,70.47
2023-05-19T23:34:50.681Z,70.76
2023-05-19T23:36:54.679Z,70.86
2023-05-19T23:38:57.253Z,70.76
2023-05-19T23:40:59.855Z,70.89
2023-05-19T23:43:02.407Z,70.70
2023-05-19T23:45:05.530Z,70.43
2023-05-19T23:47:08.249Z,70.56
2023-05-19T23:49:10.957Z,70.56
2023-05-19T23:51:13.605Z,70.61
2023-05-19T23:53:17.595Z,70.65
2023-05-19T23:55:20.224Z,70.72
2023-05-19T23:57:22.860Z,70.70
2023-05-19T23:59:25.444Z,70.88
